Time;durP1;ratioP1;P1;durP2;ratioP2;P2;SDS_P1;SDS_P2;PMS_P1;PMS_P2;Temp;Humidity;BMP_temperature;BMP_pressure;BME280_temperature;BME280_humidity;BME280_pressure;Samples;Min_cycle;Max_cycle;Signal;HPM_P1;HPM_P2
2021/08/11 00:00:55;;;;;;;9.57;6.22;;;;;;;22.76;55.09;96986.00;5003402;28;20068;-64
2021/08/11 00:03:22;;;;;;;8.50;7.00;;;;;;;22.80;55.20;96997.97;5004171;28;20520;-65
2021/08/11 00:05:49;;;;;;;11.27;7.03;;;;;;;22.66;55.53;96982.28;5004334;28;20540;-66
2021/08/11 00:08:16;;;;;;;13.98;7.25;;;;;;;22.28;55.83;96928.56;5002801;28;20062;-62
2021/08/11 00:10:43;;;;;;;7.15;6.45;;;;;;;22.67;55.88;96988.72;5002124;28;20053;-63
2021/08/11 00:13:09;;;;;;;10.32;7.28;;;;;;;22.62;56.13;96983.63;5002698;28;20148;-63
2021/08/11 00:15:36;;;;;;;9.10;7.47;;;;;;;22.61;56.14;96988.47;5002649;28;20475;-63
2021/08/11 00:18:03;;;;;;;9.02;7.15;;;;;;;22.03;56.11;96894.69;5004000;28;20054;-64
2021/08/11 00:20:30;;;;;;;7.78;6.97;;;;;;;22.23;56.00;96953.72;5002224;28;20531;-64
2021/08/11 00:22:57;;;;;;;8.73;7.10;;;;;;;22.44;56.51;96976.47;5004447;28;20515;-64
2021/08/11 00:25:24;;;;;;;11.68;7.70;;;;;;;22.38;56.76;96975.41;5004247;28;20132;-64
2021/08/11 00:27:50;;;;;;;11.25;7.95;;;;;;;22.35;56.81;96978.38;5002795;28;20054;-63
2021/08/11 00:30:17;;;;;;;12.20;8.38;;;;;;;21.79;57.93;96907.50;5002854;28;20066;-64
2021/08/11 00:32:44;;;;;;;10.45;8.20;;;;;;;22.19;58.13;96990.50;5002719;28;20085;-62
2021/08/11 00:35:11;;;;;;;15.32;8.05;;;;;;;22.01;58.22;96992.28;5004033;28;20054;-63
2021/08/11 00:37:38;;;;;;;13.02;8.45;;;;;;;22.05;58.66;96988.09;5002250;28;20054;-63
2021/08/11 00:40:06;;;;;;;9.38;7.97;;;;;;;22.09;58.02;96988.81;5003930;28;20093;-64
2021/08/11 00:42:34;;;;;;;10.32;8.00;;;;;;;21.68;57.70;96929.53;5004168;28;20156;-64
2021/08/11 00:45:02;;;;;;;8.80;7.20;;;;;;;21.45;58.59;96912.84;5002589;28;20436;-62
2021/08/11 00:47:36;;;;;;;11.55;7.70;;;;;;;21.45;59.04;96932.59;5003761;28;20061;-64
2021/08/11 00:50:07;;;;;;;9.45;7.50;;;;;;;21.79;59.26;96980.81;5003029;28;20061;-63
2021/08/11 00:52:34;;;;;;;12.25;7.38;;;;;;;21.62;58.93;96942.59;5002538;28;20140;-62
2021/08/11 00:55:01;;;;;;;8.77;7.28;;;;;;;21.36;59.44;96923.19;5002377;28;20068;-62
2021/08/11 00:57:29;;;;;;;9.05;7.82;;;;;;;21.54;60.10;96965.78;5002510;28;20084;-62
2021/08/11 00:59:57;;;;;;;10.27;7.53;;;;;;;21.27;60.41;96937.13;5002338;28;20072;-63
2021/08/11 01:02:24;;;;;;;12.63;7.18;;;;;;;21.14;60.24;96899.63;5002147;28;20527;-62
2021/08/11 01:04:55;;;;;;;9.38;7.45;;;;;;;21.58;60.57;96972.09;5003778;28;20084;-64
2021/08/11 01:07:24;;;;;;;8.50;7.65;;;;;;;20.90;60.95;96870.84;5003773;28;20148;-62
2021/08/11 01:09:53;;;;;;;8.25;7.38;;;;;;;21.38;61.48;96966.63;5003019;28;20053;-62
2021/08/11 01:12:24;;;;;;;8.75;7.63;;;;;;;21.14;61.99;96933.44;5002438;28;20061;-63
2021/08/11 01:14:51;;;;;;;9.35;8.30;;;;;;;21.29;61.94;96946.72;5002085;28;20525;-61
2021/08/11 01:17:21;;;;;;;8.77;7.55;;;;;;;20.88;61.88;96881.78;5001894;28;20054;-66
2021/08/11 01:19:48;;;;;;;10.65;7.72;;;;;;;21.21;62.32;96950.97;5002097;28;20061;-63
2021/08/11 01:22:35;;;;;;;9.35;6.95;;;;;;;20.81;62.82;96905.28;5003001;28;20064;-65
2021/08/11 01:25:08;;;;;;;10.57;8.75;;;;;;;21.08;62.93;96941.66;5007391;28;20145;-62
2021/08/11 01:28:12;;;;;;;10.77;8.02;;;;;;;21.15;62.71;96933.00;5006399;28;20081;-62
2021/08/11 01:30:58;;;;;;;;;;;;;;;21.22;62.60;96924.38;5007615;28;20084;-62
2021/08/11 01:34:10;;;;;;;12.63;8.50;;;;;;;21.20;62.70;96926.81;5005709;28;19926;-62
2021/08/11 01:36:52;;;;;;;9.27;8.30;;;;;;;21.22;62.87;96935.63;4995744;28;20054;-63
2021/08/11 01:39:22;;;;;;;8.60;7.70;;;;;;;21.09;63.07;96920.69;5005707;28;20060;-63
2021/08/11 01:41:57;;;;;;;8.30;7.03;;;;;;;21.10;63.07;96919.47;5005602;28;20081;-62
2021/08/11 01:44:31;;;;;;;12.65;9.20;;;;;;;20.72;63.50;96884.63;5007763;28;20080;-62
2021/08/11 01:46:59;;;;;;;9.25;8.18;;;;;;;20.62;63.51;96885.66;5007737;28;20063;-62
2021/08/11 01:49:27;;;;;;;11.95;8.13;;;;;;;20.57;63.42;96869.31;5005655;28;20072;-63
2021/08/11 01:51:54;;;;;;;14.15;9.20;;;;;;;20.68;63.66;96883.91;5005309;28;20133;-65
2021/08/11 01:54:22;;;;;;;14.90;10.38;;;;;;;20.87;63.88;96925.25;5006740;28;20133;-62
2021/08/11 01:56:49;;;;;;;12.75;9.77;;;;;;;20.61;64.32;96906.63;5005524;28;20062;-62
2021/08/11 01:59:17;;;;;;;13.68;9.80;;;;;;;20.64;64.98;96931.06;5005473;28;20574;-63
2021/08/11 02:01:44;;;;;;;11.57;10.10;;;;;;;20.55;65.15;96936.53;5005419;28;20057;-63
2021/08/11 02:04:13;;;;;;;14.45;9.85;;;;;;;20.23;65.18;96875.34;5006926;28;20076;-64
2021/08/11 02:06:40;;;;;;;12.35;9.70;;;;;;;20.26;65.24;96884.94;5005241;28;20054;-62
2021/08/11 02:09:07;;;;;;;13.85;9.50;;;;;;;20.61;65.32;96940.38;5005313;28;20084;-62
2021/08/11 02:11:40;;;;;;;10.27;8.77;;;;;;;20.57;65.53;96931.22;5005151;28;20069;-64
2021/08/11 02:14:11;;;;;;;10.68;9.00;;;;;;;20.65;65.48;96929.81;5005317;28;20413;-63
2021/08/11 02:16:39;;;;;;;14.57;10.45;;;;;;;20.55;65.70;96917.59;5004964;28;20843;-63
2021/08/11 02:19:08;;;;;;;15.18;10.50;;;;;;;20.60;65.95;96941.59;5006150;28;20054;-62
2021/08/11 02:21:36;;;;;;;14.27;9.40;;;;;;;20.51;66.69;96928.16;5006387;28;20070;-61
2021/08/11 02:24:04;;;;;;;14.73;9.65;;;;;;;20.53;66.06;96944.59;5005359;28;20237;-63
2021/08/11 02:26:38;;;;;;;11.07;9.00;;;;;;;20.43;66.08;96920.31;5005839;28;20927;-63
2021/08/11 02:29:16;;;;;;;11.63;9.48;;;;;;;20.44;66.13;96935.94;5006152;28;20131;-63
2021/08/11 02:31:56;;;;;;;11.20;8.75;;;;;;;20.46;66.00;96922.25;5006429;28;20165;-63
2021/08/11 02:34:32;;;;;;;11.20;8.88;;;;;;;20.45;66.40;96921.47;5005200;28;20061;-63
2021/08/11 02:37:05;;;;;;;11.82;9.48;;;;;;;20.41;66.62;96917.13;5004705;28;20061;-64
2021/08/11 02:39:43;;;;;;;10.60;9.30;;;;;;;20.48;67.00;96919.78;5006144;28;20543;-61
2021/08/11 02:42:20;;;;;;;11.57;8.70;;;;;;;20.47;66.69;96901.34;5006326;28;20068;-62
2021/08/11 02:44:55;;;;;;;10.10;8.73;;;;;;;20.36;67.18;96912.03;5004797;28;20058;-62
2021/08/11 02:47:24;;;;;;;9.82;8.48;;;;;;;20.31;67.17;96904.13;5004458;28;20054;-63
2021/08/11 02:49:52;;;;;;;10.15;9.05;;;;;;;20.43;66.87;96906.25;5006022;28;20085;-63
2021/08/11 02:52:19;;;;;;;13.50;9.23;;;;;;;19.69;66.53;96800.28;5004090;28;20052;-61
2021/08/11 02:54:47;;;;;;;11.70;8.57;;;;;;;20.38;67.21;96909.56;5004017;28;20061;-62
2021/08/11 02:57:16;;;;;;;10.07;8.10;;;;;;;19.93;67.26;96843.91;5004114;28;20144;-62
2021/08/11 02:59:42;;;;;;;12.25;8.75;;;;;;;20.37;67.52;96919.25;5004698;28;20060;-63
2021/08/11 03:02:09;;;;;;;13.65;9.02;;;;;;;18.49;67.36;96628.78;5004203;28;20248;-62
2021/08/11 03:04:37;;;;;;;13.65;9.43;;;;;;;20.04;67.82;96883.81;5004173;28;20139;-63
2021/08/11 03:07:04;;;;;;;11.25;9.00;;;;;;;20.10;67.41;96884.88;5003866;28;20046;-62
2021/08/11 03:09:31;;;;;;;11.30;9.40;;;;;;;20.03;66.89;96873.81;5003869;28;20061;-63
2021/08/11 03:11:59;;;;;;;14.80;10.45;;;;;;;18.27;66.92;96593.13;5003952;28;20910;-62
2021/08/11 03:14:26;;;;;;;10.93;9.20;;;;;;;20.02;67.78;96918.00;5004101;28;20604;-62
2021/08/11 03:16:53;;;;;;;11.75;9.65;;;;;;;20.16;68.15;96919.72;5004001;28;20060;-62
2021/08/11 03:19:20;;;;;;;14.93;10.70;;;;;;;20.24;68.22;96935.22;5003956;28;20054;-61
2021/08/11 03:21:47;;;;;;;14.90;9.98;;;;;;;20.25;67.44;96905.88;5004699;28;20451;-62
2021/08/11 03:24:14;;;;;;;12.30;9.82;;;;;;;20.36;67.45;96920.50;5003573;28;20053;-62
2021/08/11 03:26:40;;;;;;;15.77;9.55;;;;;;;19.95;66.98;96870.34;5004941;28;20042;-62
2021/08/11 03:29:07;;;;;;;12.63;9.82;;;;;;;20.26;67.17;96935.59;5003688;28;20049;-63
2021/08/11 03:31:34;;;;;;;19.48;10.77;;;;;;;20.54;66.03;96940.53;5003257;28;20046;-62
2021/08/11 03:34:01;;;;;;;12.95;9.73;;;;;;;20.53;65.77;96922.09;4982332;28;20057;-63
2021/08/11 03:36:28;;;;;;;12.25;9.57;;;;;;;20.06;65.99;96854.03;5003770;28;20046;-63
2021/08/11 03:38:54;;;;;;;12.25;9.10;;;;;;;20.35;66.41;96904.81;5004942;28;20064;-62
2021/08/11 03:41:21;;;;;;;11.82;8.95;;;;;;;20.55;66.76;96942.16;5004784;28;20496;-62
2021/08/11 03:43:48;;;;;;;15.35;9.00;;;;;;;20.51;67.10;96936.59;5003655;28;20054;-62
2021/08/11 03:46:14;;;;;;;12.07;9.05;;;;;;;20.41;66.95;96922.75;5003102;28;20064;-63
2021/08/11 03:48:41;;;;;;;14.25;10.02;;;;;;;20.52;66.77;96937.38;5003823;28;20065;-63
2021/08/11 03:51:08;;;;;;;15.07;9.80;;;;;;;20.06;66.82;96870.13;5003872;28;20582;-64
2021/08/11 03:53:35;;;;;;;12.52;9.98;;;;;;;19.99;67.16;96870.28;5003627;28;20079;-62
2021/08/11 03:56:02;;;;;;;11.75;9.52;;;;;;;20.44;67.19;96941.56;5003103;28;20060;-64
2021/08/11 03:58:28;;;;;;;12.15;9.88;;;;;;;20.55;66.75;96936.53;5004605;28;20061;-63
2021/08/11 04:00:55;;;;;;;12.98;10.23;;;;;;;20.34;66.46;96903.25;5002516;28;20522;-62
2021/08/11 04:03:22;;;;;;;16.10;10.50;;;;;;;20.69;66.44;96936.19;5004530;28;20049;-62
2021/08/11 04:05:50;;;;;;;19.75;9.85;;;;;;;20.41;66.66;96889.00;5002609;28;20066;-63
2021/08/11 04:08:16;;;;;;;13.43;9.55;;;;;;;20.45;66.63;96898.97;5004057;28;20560;-64
2021/08/11 04:10:45;;;;;;;14.93;10.15;;;;;;;20.88;66.22;96938.13;5003121;28;20136;-63
2021/08/11 04:13:15;;;;;;;18.65;10.57;;;;;;;21.04;65.57;96934.53;5004017;28;20441;-63
2021/08/11 04:15:42;;;;;;;30.10;10.18;;;;;;;20.70;65.73;96887.06;5002613;28;20058;-63
2021/08/11 04:18:10;;;;;;;23.75;10.70;;;;;;;21.21;65.02;96950.16;5004103;28;20481;-63
2021/08/11 04:20:38;;;;;;;14.90;9.95;;;;;;;21.38;64.52;96926.34;5003559;28;20148;-63
2021/08/11 04:23:07;;;;;;;16.15;9.15;;;;;;;21.31;64.93;96932.97;5002398;28;20066;-64
2021/08/11 04:25:39;;;;;;;24.50;8.98;;;;;;;20.62;64.30;96807.66;5003870;28;20065;-64
2021/08/11 04:28:07;;;;;;;22.15;12.35;;;;;;;21.62;64.13;96931.31;5003791;28;20050;-62
2021/08/11 04:30:35;;;;;;;17.92;9.73;;;;;;;21.37;63.79;96888.16;5002510;28;20159;-63
2021/08/11 04:33:02;;;;;;;10.48;8.55;;;;;;;21.82;63.64;96939.63;5002603;28;20062;-64
2021/08/11 04:35:29;;;;;;;12.45;9.15;;;;;;;22.01;63.29;96936.66;5001858;28;20053;-64
2021/08/11 04:37:56;;;;;;;13.13;9.20;;;;;;;22.10;62.82;96942.41;5003698;28;20142;-63
2021/08/11 04:40:23;;;;;;;16.95;10.15;;;;;;;21.78;61.50;96872.03;5002175;28;20057;-63
2021/08/11 04:42:50;;;;;;;15.98;9.55;;;;;;;21.74;61.07;96836.69;5004086;28;20080;-63
2021/08/11 04:45:17;;;;;;;12.82;9.63;;;;;;;22.38;61.80;96933.06;5002866;28;20503;-63
2021/08/11 04:47:44;;;;;;;13.90;9.90;;;;;;;22.22;61.91;96910.59;5002811;28;20144;-63
2021/08/11 04:50:12;;;;;;;20.20;11.18;;;;;;;21.95;63.67;96944.09;5003885;28;20053;-63
2021/08/11 04:52:39;;;;;;;23.10;13.25;;;;;;;21.58;65.16;96896.78;5002571;28;20060;-62
2021/08/11 04:55:07;;;;;;;18.45;10.02;;;;;;;21.50;66.86;96934.09;5003136;28;20537;-63
2021/08/11 04:57:34;;;;;;;16.02;9.63;;;;;;;22.01;65.50;96933.81;5004312;28;20058;-63
2021/08/11 05:00:02;;;;;;;16.05;9.95;;;;;;;22.23;63.78;96929.13;5006565;28;20034;-62
2021/08/11 05:02:29;;;;;;;15.10;9.70;;;;;;;22.40;61.99;96905.19;5007870;28;20046;-63
2021/08/11 05:04:55;;;;;;;10.40;9.25;;;;;;;22.82;60.96;96927.69;5006830;28;20485;-64
2021/08/11 05:07:22;;;;;;;13.18;10.73;;;;;;;23.04;60.09;96940.66;5008085;28;20057;-64
2021/08/11 05:09:49;;;;;;;14.43;10.30;;;;;;;23.24;59.40;96927.03;5007798;28;20057;-64
2021/08/11 05:12:16;;;;;;;15.05;10.85;;;;;;;23.47;59.21;96934.38;5007669;28;20049;-64
2021/08/11 05:14:43;;;;;;;23.30;10.70;;;;;;;23.73;58.71;96930.16;5006311;28;20568;-63
2021/08/11 05:17:10;;;;;;;15.10;10.43;;;;;;;24.01;57.57;96928.38;5007498;28;20645;-62
2021/08/11 05:19:37;;;;;;;18.08;12.35;;;;;;;23.76;58.59;96900.94;5007211;28;20057;-63
2021/08/11 05:22:04;;;;;;;22.80;11.27;;;;;;;24.30;57.29;96940.97;5005528;28;20513;-64
2021/08/11 05:24:31;;;;;;;21.67;12.32;;;;;;;24.15;58.39;96939.94;5005666;28;20461;-63
2021/08/11 05:26:57;;;;;;;16.88;11.00;;;;;;;23.84;59.74;96936.22;5005357;28;20527;-62
2021/08/11 05:29:24;;;;;;;16.52;10.82;;;;;;;24.06;59.24;96920.06;5006431;28;20079;-62
2021/08/11 05:31:51;;;;;;;16.85;10.82;;;;;;;24.53;58.58;96931.94;5007125;28;20085;-62
2021/08/11 05:34:18;;;;;;;14.95;10.30;;;;;;;24.78;57.03;96937.47;5004984;28;20070;-63
2021/08/11 05:36:44;;;;;;;13.15;9.95;;;;;;;24.62;55.89;96881.03;5006943;28;20108;-63
2021/08/11 05:39:11;;;;;;;17.95;9.55;;;;;;;25.22;54.23;96938.84;5005545;28;20806;-63
2021/08/11 05:41:38;;;;;;;13.40;10.10;;;;;;;25.49;54.37;96945.84;5006211;28;20064;-63
2021/08/11 05:44:07;;;;;;;17.17;10.32;;;;;;;25.71;53.38;96947.28;5006508;28;20054;-62
2021/08/11 05:46:33;;;;;;;14.32;9.95;;;;;;;25.48;52.47;96881.88;5006174;28;20053;-62
2021/08/11 05:49:02;;;;;;;12.23;10.20;;;;;;;25.47;51.86;96866.88;5005187;28;20068;-63
2021/08/11 05:51:33;;;;;;;12.40;10.57;;;;;;;26.25;51.68;96944.44;5005238;28;20081;-62
2021/08/11 05:54:01;;;;;;;17.73;10.40;;;;;;;26.16;52.48;96955.78;5006313;28;20526;-63
2021/08/11 05:56:28;;;;;;;19.10;10.13;;;;;;;26.54;51.82;96969.47;5004724;28;20068;-62
2021/08/11 05:58:55;;;;;;;14.93;10.90;;;;;;;26.83;51.02;96951.84;5005237;28;20124;-62
2021/08/11 06:01:25;;;;;;;16.55;10.75;;;;;;;27.05;50.14;96941.81;5006153;28;20061;-62
2021/08/11 06:03:57;;;;;;;13.35;10.43;;;;;;;27.16;49.48;96942.06;5001181;28;20068;-63
2021/08/11 06:06:25;;;;;;;13.10;11.13;;;;;;;26.17;50.82;96857.19;4987953;28;20429;-65
2021/08/11 06:08:51;;;;;;;23.48;11.63;;;;;;;26.24;51.18;96842.66;4986269;28;20062;-64
2021/08/11 06:11:18;;;;;;;13.60;10.52;;;;;;;26.81;50.74;96932.44;4994048;28;20157;-61
2021/08/11 06:13:45;;;;;;;12.10;10.27;;;;;;;27.02;50.80;96907.84;4999120;28;20058;-64
2021/08/11 06:16:12;;;;;;;17.30;9.98;;;;;;;27.20;49.79;96902.84;4990771;28;20109;-65
2021/08/11 06:18:39;;;;;;;13.55;10.13;;;;;;;27.80;48.85;96939.59;5006153;28;20054;-66
2021/08/11 06:21:06;;;;;;;15.65;9.95;;;;;;;27.54;48.32;96867.38;5005748;28;20054;-69
2021/08/11 06:23:33;;;;;;;11.90;10.32;;;;;;;28.12;47.78;96908.16;5001124;28;20061;-62
2021/08/11 06:26:01;;;;;;;14.02;10.00;;;;;;;28.66;46.33;96937.38;5000840;28;20050;-62
2021/08/11 06:28:28;;;;;;;13.40;10.60;;;;;;;28.82;45.77;96948.25;4986194;28;20061;-66
2021/08/11 06:30:55;;;;;;;16.90;10.10;;;;;;;29.06;44.98;96914.69;4984234;28;20046;-65
2021/08/11 06:33:21;;;;;;;15.32;9.95;;;;;;;29.15;44.15;96889.69;4986332;28;20081;-62
2021/08/11 06:35:48;;;;;;;14.25;10.10;;;;;;;29.26;43.82;96917.63;4987576;28;20341;-62
2021/08/11 06:38:16;;;;;;;13.55;10.13;;;;;;;29.42;43.75;96926.41;5013482;28;20045;-63
2021/08/11 06:40:43;;;;;;;14.13;10.23;;;;;;;29.36;44.66;96916.19;5017153;28;20217;-61
2021/08/11 06:43:10;;;;;;;14.88;9.93;;;;;;;28.92;42.71;96795.69;5000686;28;20050;-61
2021/08/11 06:45:37;;;;;;;11.80;9.00;;;;;;;30.10;41.39;96923.13;4988370;28;20050;-67
2021/08/11 06:48:04;;;;;;;9.68;8.85;;;;;;;30.30;42.06;96921.03;5003315;28;20060;-62
2021/08/11 06:50:31;;;;;;;12.00;9.60;;;;;;;30.42;40.88;96922.69;5003637;28;20046;-60
2021/08/11 06:52:58;;;;;;;11.63;8.00;;;;;;;30.58;39.31;96910.63;4996907;28;20053;-66
2021/08/11 06:55:25;;;;;;;11.95;8.45;;;;;;;30.96;36.91;96926.56;4984748;28;20054;-63
2021/08/11 06:57:51;;;;;;;9.70;8.35;;;;;;;30.72;37.91;96912.56;5001520;28;20444;-62
2021/08/11 07:00:19;;;;;;;10.23;8.98;;;;;;;30.36;38.48;96824.66;4999465;28;20049;-61
2021/08/11 07:02:47;;;;;;;10.45;8.20;;;;;;;31.20;37.60;96917.63;5003572;28;20209;-64
2021/08/11 07:05:15;;;;;;;11.25;8.80;;;;;;;31.30;36.52;96914.06;4992690;28;20096;-62
2021/08/11 07:07:42;;;;;;;11.13;8.68;;;;;;;31.40;35.90;96911.78;5005244;28;20072;-63
2021/08/11 07:10:11;;;;;;;9.30;8.43;;;;;;;31.42;36.60;96903.47;4996097;28;20049;-62
2021/08/11 07:12:38;;;;;;;10.30;7.43;;;;;;;31.30;35.61;96870.31;4994953;28;20049;-64
2021/08/11 07:34:19;;;;;;;9.05;8.15;;;;;;;32.82;33.50;96910.66;4963868;28;20598;-67
2021/08/11 07:36:46;;;;;;;9.02;8.13;;;;;;;32.80;33.36;96907.53;4954367;28;20245;-67
2021/08/11 07:39:12;;;;;;;8.65;7.00;;;;;;;31.38;32.58;96665.28;4942654;28;20059;-65
2021/08/11 07:41:39;;;;;;;9.50;6.80;;;;;;;32.93;32.76;96907.81;4946594;28;20047;-65
2021/08/11 07:44:06;;;;;;;9.95;7.07;;;;;;;32.64;32.17;96861.63;4940370;28;20057;-66
2021/08/11 07:46:33;;;;;;;9.85;7.32;;;;;;;32.72;32.12;96860.59;4938759;28;20577;-67
2021/08/11 07:49:00;;;;;;;7.50;6.80;;;;;;;32.94;31.63;96886.44;4948146;28;20572;-65
2021/08/11 07:51:27;;;;;;;9.15;7.22;;;;;;;32.57;31.95;96799.81;4947639;28;20357;-67
2021/08/11 07:53:54;;;;;;;12.65;7.13;;;;;;;32.97;31.73;96859.56;4941529;28;20367;-67
2021/08/11 07:56:22;;;;;;;8.75;7.35;;;;;;;33.45;31.56;96897.31;4944397;28;20062;-72
2021/08/11 07:58:49;;;;;;;7.22;6.57;;;;;;;33.55;30.71;96895.72;4944896;28;20060;-68
2021/08/11 08:01:16;;;;;;;8.68;7.88;;;;;;;33.48;29.22;96892.63;4939449;28;20053;-65
2021/08/11 08:03:43;;;;;;;9.23;6.75;;;;;;;33.19;28.80;96865.25;4941276;28;20481;-68
2021/08/11 08:06:10;;;;;;;8.70;7.13;;;;;;;30.41;29.07;96515.16;4938337;28;20061;-67
2021/08/11 08:08:36;;;;;;;8.18;7.15;;;;;;;33.39;29.09;96882.19;4940200;28;20070;-66
2021/08/11 08:11:03;;;;;;;8.20;7.38;;;;;;;32.91;29.15;96852.25;4946116;28;20139;-67
2021/08/11 08:13:30;;;;;;;7.57;6.90;;;;;;;32.75;29.60;96859.56;4946841;28;20045;-68
2021/08/11 08:15:56;;;;;;;7.93;7.22;;;;;;;32.64;29.16;96796.44;4943136;28;20061;-68
2021/08/11 08:18:23;;;;;;;9.30;7.93;;;;;;;32.95;29.49;96859.28;4935608;28;20597;-69
2021/08/11 08:20:55;;;;;;;14.77;10.80;;;;;;;32.84;29.36;96876.50;4937006;28;20050;-60
2021/08/11 08:23:22;;;;;;;8.88;7.80;;;;;;;33.12;29.75;96876.47;4943371;28;20457;-65
2021/08/11 08:25:49;;;;;;;11.65;8.32;;;;;;;33.41;28.39;96882.47;4941795;28;20402;-68
2021/08/11 08:28:16;;;;;;;6.95;6.32;;;;;;;33.20;26.69;96840.16;4943878;28;20054;-69
2021/08/11 08:30:45;;;;;;;7.70;6.90;;;;;;;33.00;26.85;96815.44;4938058;28;20155;-61
2021/08/11 08:33:12;;;;;;;7.65;6.75;;;;;;;33.07;27.02;96786.19;4935568;28;20046;-69
2021/08/11 08:35:38;;;;;;;9.30;6.40;;;;;;;33.45;26.23;96788.16;4939885;28;20111;-64
2021/08/11 08:38:05;;;;;;;7.53;6.85;;;;;;;33.71;27.92;96863.28;4941853;28;20052;-67
2021/08/11 08:40:36;;;;;;;8.23;7.43;;;;;;;33.08;28.01;96858.75;4951899;28;20429;-67
2021/08/11 08:43:03;;;;;;;8.68;6.53;;;;;;;33.19;28.47;96850.91;4942602;28;20389;-67
2021/08/11 08:45:30;;;;;;;8.93;7.28;;;;;;;33.35;28.62;96852.94;4948265;28;20045;-66
2021/08/11 08:47:58;;;;;;;7.40;6.68;;;;;;;33.09;28.51;96857.44;4935449;28;20663;-67
2021/08/11 08:50:24;;;;;;;7.10;6.40;;;;;;;32.89;28.71;96809.72;4932637;28;20061;-66
2021/08/11 08:52:52;;;;;;;7.30;6.57;;;;;;;33.15;28.29;96844.63;4936733;28;20411;-67
2021/08/11 08:55:23;;;;;;;8.35;7.45;;;;;;;32.63;28.00;96751.06;4935088;28;20524;-64
2021/08/11 08:57:50;;;;;;;13.05;11.68;;;;;;;32.19;28.06;96637.16;4946284;28;20557;-69
2021/08/11 09:00:19;;;;;;;10.90;8.80;;;;;;;33.86;27.71;96844.91;4945083;28;20517;-65
2021/08/11 09:02:46;;;;;;;22.85;19.52;;;;;;;33.59;27.95;96835.88;4947086;28;20164;-70
2021/08/11 09:05:14;;;;;;;9.18;8.23;;;;;;;32.62;28.28;96641.25;4934940;28;20146;-66
2021/08/11 09:07:47;;;;;;;11.00;6.90;;;;;;;34.09;27.64;96834.88;4934176;28;20104;-66
2021/08/11 09:10:21;;;;;;;8.90;7.32;;;;;;;34.38;27.25;96845.66;4932845;28;20058;-65
2021/08/11 09:13:07;;;;;;;7.97;7.28;;;;;;;33.71;27.23;96828.78;4937379;28;20046;-63
2021/08/11 09:15:39;;;;;;;7.03;6.40;;;;;;;33.43;27.23;96833.84;4934428;28;20058;-69
2021/08/11 09:18:12;;;;;;;10.05;8.80;;;;;;;33.74;27.03;96833.47;4936885;28;20223;-66
2021/08/11 09:20:40;;;;;;;10.35;8.13;;;;;;;33.54;26.56;96825.19;4942912;28;20830;-64
2021/08/11 09:23:07;;;;;;;7.47;6.78;;;;;;;32.67;27.26;96792.53;4946480;28;20050;-65
2021/08/11 09:25:35;;;;;;;10.48;8.45;;;;;;;33.59;27.14;96832.25;4937470;28;20046;-66
2021/08/11 09:28:17;;;;;;;7.75;6.95;;;;;;;32.84;26.03;96727.25;4939205;28;20053;-67
2021/08/11 09:30:57;;;;;;;7.47;6.65;;;;;;;33.12;26.62;96771.03;4940078;28;20572;-66
2021/08/11 09:33:24;;;;;;;9.10;8.18;;;;;;;33.17;26.96;96819.03;4952425;28;20057;-66
2021/08/11 09:35:53;;;;;;;9.35;8.38;;;;;;;33.56;26.45;96776.59;4942320;28;20513;-66
2021/08/11 09:38:21;;;;;;;8.00;7.30;;;;;;;34.08;26.37;96811.09;4936680;28;20165;-68
2021/08/11 09:40:49;;;;;;;8.52;7.57;;;;;;;34.31;26.18;96794.44;4941761;28;20500;-66
2021/08/11 09:43:18;;;;;;;11.23;8.25;;;;;;;33.71;26.18;96771.31;4935350;28;20548;-63
2021/08/11 09:45:49;;;;;;;7.20;6.50;;;;;;;33.41;26.68;96807.78;4948376;28;20141;-64
2021/08/11 09:48:17;;;;;;;9.30;8.40;;;;;;;33.23;27.95;96781.69;4952783;28;20133;-64
2021/08/11 09:50:45;;;;;;;8.05;7.25;;;;;;;33.83;27.47;96805.72;4959974;28;20606;-65
2021/08/11 09:53:25;;;;;;;9.65;7.00;;;;;;;33.63;26.01;96718.59;4959626;28;20301;-63
2021/08/11 09:56:00;;;;;;;8.75;6.15;;;;;;;33.90;25.91;96805.97;4939146;28;20054;-63
2021/08/11 09:58:28;;;;;;;25.95;17.52;;;;;;;33.74;26.84;96787.50;4947695;28;20535;-65
2021/08/11 10:00:55;;;;;;;9.20;8.30;;;;;;;33.93;26.49;96804.13;4937759;28;20050;-63
2021/08/11 10:03:22;;;;;;;8.05;7.22;;;;;;;34.33;26.18;96791.81;4939489;28;20050;-65
2021/08/11 10:05:50;;;;;;;8.68;7.65;;;;;;;34.86;26.13;96799.72;4939013;28;20476;-64
2021/08/11 10:08:33;;;;;;;6.88;6.18;;;;;;;33.81;25.90;96799.72;4938284;28;20820;-65
2021/08/11 10:11:01;;;;;;;7.60;6.90;;;;;;;34.31;26.35;96782.94;4938180;28;20046;-65
2021/08/11 10:13:34;;;;;;;8.60;7.63;;;;;;;34.95;25.14;96796.53;4936871;28;20347;-64
2021/08/11 10:16:02;;;;;;;9.82;7.43;;;;;;;34.62;25.30;96773.81;4937899;28;20124;-66
2021/08/11 10:18:30;;;;;;;7.72;7.03;;;;;;;35.47;24.50;96788.38;4939945;28;20128;-66
2021/08/11 10:21:00;;;;;;;8.73;6.80;;;;;;;35.84;24.10;96779.75;4940208;28;20061;-65
2021/08/11 10:23:27;;;;;;;7.57;6.78;;;;;;;35.17;24.15;96704.09;4938002;28;20128;-67
2021/08/11 10:25:54;;;;;;;9.85;7.78;;;;;;;35.62;24.10;96774.25;4963650;28;20054;-62
2021/08/11 10:28:25;;;;;;;7.05;6.13;;;;;;;35.90;23.85;96754.47;4991044;28;20048;-63
2021/08/11 10:30:52;;;;;;;7.88;7.10;;;;;;;35.73;23.97;96722.22;5000709;28;20045;-63
2021/08/11 10:33:20;;;;;;;7.50;6.70;;;;;;;36.27;24.08;96765.97;4995352;28;20053;-63
2021/08/11 10:35:48;;;;;;;7.70;7.00;;;;;;;36.45;23.99;96765.16;4991368;28;20429;-65
2021/08/11 10:38:16;;;;;;;9.30;7.70;;;;;;;36.39;23.54;96738.50;4992523;28;20531;-66
2021/08/11 10:40:51;;;;;;;8.70;7.72;;;;;;;36.84;23.52;96755.06;4996069;28;20503;-68
2021/08/11 10:43:18;;;;;;;10.77;8.23;;;;;;;35.20;23.84;96541.72;4986671;28;20148;-66
2021/08/11 10:45:55;;;;;;;9.32;8.43;;;;;;;35.77;24.91;96768.03;4997981;28;20457;-63
2021/08/11 10:48:23;;;;;;;8.93;8.02;;;;;;;35.02;24.90;96723.91;4990104;28;20428;-62
2021/08/11 10:50:51;;;;;;;10.80;7.70;;;;;;;34.94;25.44;96728.72;4985667;28;20181;-65
2021/08/11 10:53:18;;;;;;;7.78;6.97;;;;;;;34.58;25.61;96698.47;4994333;28;20166;-62
2021/08/11 10:55:48;;;;;;;8.85;7.60;;;;;;;34.89;25.61;96712.28;4996025;28;20060;-65
2021/08/11 10:58:42;;;;;;;11.38;9.18;;;;;;;35.08;25.42;96707.34;4993715;28;20785;-61
2021/08/11 11:01:35;;;;;;;7.85;7.10;;;;;;;35.39;24.43;96729.78;4989909;28;20053;-60
2021/08/11 11:04:03;;;;;;;8.85;6.90;;;;;;;35.08;25.59;96733.28;5004335;28;20057;-64
2021/08/11 11:06:50;;;;;;;7.30;6.70;;;;;;;34.81;25.64;96728.56;5005018;28;20054;-66
2021/08/11 11:09:20;;;;;;;9.55;7.40;;;;;;;34.79;25.89;96648.50;4991361;28;20062;-64
2021/08/11 11:11:47;;;;;;;8.93;7.00;;;;;;;35.29;25.79;96722.00;4983707;28;20557;-64
2021/08/11 11:14:47;;;;;;;8.05;7.18;;;;;;;35.06;25.03;96618.59;4985732;28;20050;-65
2021/08/11 11:17:15;;;;;;;9.15;6.95;;;;;;;35.30;24.90;96724.34;4985104;28;20205;-64
2021/08/11 11:20:08;;;;;;;7.60;6.72;;;;;;;34.84;25.52;96713.13;4985361;28;20058;-65
2021/08/11 11:22:40;;;;;;;6.65;4.90;;;;;;;34.88;24.95;96711.53;4987502;28;20061;-61
2021/08/11 11:25:09;;;;;;;6.60;6.00;;;;;;;35.09;25.68;96714.69;4990133;28;20052;-65
2021/08/11 11:27:39;;;;;;;8.90;7.25;;;;;;;35.03;27.42;96716.84;4997003;28;20046;-66
2021/08/11 11:30:07;;;;;;;8.20;7.40;;;;;;;35.17;26.73;96710.63;4997816;28;20675;-64
2021/08/11 11:32:37;;;;;;;7.75;7.05;;;;;;;34.36;26.96;96664.16;4995111;28;20049;-62
2021/08/11 11:35:18;;;;;;;8.68;7.03;;;;;;;34.99;26.64;96701.97;5004463;28;20499;-64
2021/08/11 11:38:05;;;;;;;7.93;7.10;;;;;;;34.97;26.33;96661.41;4997422;28;20513;-65
2021/08/11 11:40:32;;;;;;;6.80;6.20;;;;;;;34.75;26.53;96690.44;4984634;28;20042;-67
2021/08/11 11:43:27;;;;;;;12.05;7.55;;;;;;;35.42;26.42;96691.22;4985168;28;20062;-68
2021/08/11 11:45:54;;;;;;;9.15;6.22;;;;;;;35.29;25.66;96685.34;4984546;28;20061;-67
2021/08/11 11:48:22;;;;;;;8.48;7.75;;;;;;;34.17;24.96;96467.72;4994066;28;20125;-65
2021/08/11 11:51:00;;;;;;;8.50;7.47;;;;;;;35.80;24.83;96652.38;5007036;28;20137;-69
2021/08/11 11:53:37;;;;;;;7.03;6.38;;;;;;;35.63;24.47;96677.78;4997596;28;20081;-63
2021/08/11 11:56:14;;;;;;;7.15;6.10;;;;;;;34.66;24.45;96457.69;4984058;28;20323;-66